sensor_id;sensor_type;location;lat;lon;timestamp;pressure;altitude;pressure_sealevel;temperature;humidity
74075;BME280;62428;51.412;5.432;2023-03-13T00:00:15;100153.28;;;8.75;95.18
74075;BME280;62428;51.412;5.432;2023-03-13T00:02:41;100139.41;;;8.73;95.23
74075;BME280;62428;51.412;5.432;2023-03-13T00:05:10;100146.94;;;8.71;95.69
74075;BME280;62428;51.412;5.432;2023-03-13T00:07:35;100129.56;;;8.68;96.09
74075;BME280;62428;51.412;5.432;2023-03-13T00:10:01;100122.09;;;8.65;96.54
74075;BME280;62428;51.412;5.432;2023-03-13T00:12:26;100120.81;;;8.62;96.69
74075;BME280;62428;51.412;5.432;2023-03-13T00:14:51;100127.25;;;8.61;97.25
74075;BME280;62428;51.412;5.432;2023-03-13T00:17:16;100117.66;;;8.60;97.44
74075;BME280;62428;51.412;5.432;2023-03-13T00:19:42;100110.69;;;8.59;97.66
74075;BME280;62428;51.412;5.432;2023-03-13T00:22:07;100103.75;;;8.58;98.23
74075;BME280;62428;51.412;5.432;2023-03-13T00:24:32;100098.69;;;8.57;98.32
74075;BME280;62428;51.412;5.432;2023-03-13T00:26:58;100093.63;;;8.55;98.97
74075;BME280;62428;51.412;5.432;2023-03-13T00:29:28;100085.91;;;8.54;99.24
74075;BME280;62428;51.412;5.432;2023-03-13T00:31:53;100085.41;;;8.52;99.74
74075;BME280;62428;51.412;5.432;2023-03-13T00:34:18;100073.91;;;8.51;100.00
74075;BME280;62428;51.412;5.432;2023-03-13T00:36:44;100072.31;;;8.50;100.00
74075;BME280;62428;51.412;5.432;2023-03-13T00:39:09;100067.25;;;8.49;100.00
74075;BME280;62428;51.412;5.432;2023-03-13T00:41:35;100059.53;;;8.47;100.00
74075;BME280;62428;51.412;5.432;2023-03-13T00:44:01;100057.63;;;8.48;100.00
74075;BME280;62428;51.412;5.432;2023-03-13T00:46:28;100048.00;;;8.46;100.00
74075;BME280;62428;51.412;5.432;2023-03-13T00:48:56;100046.16;;;8.47;100.00
74075;BME280;62428;51.412;5.432;2023-03-13T00:51:25;100040.78;;;8.47;100.00
74075;BME280;62428;51.412;5.432;2023-03-13T00:53:52;100038.91;;;8.48;100.00
74075;BME280;62428;51.412;5.432;2023-03-13T00:56:18;100034.03;;;8.50;100.00
74075;BME280;62428;51.412;5.432;2023-03-13T00:58:45;100024.13;;;8.50;100.00
74075;BME280;62428;51.412;5.432;2023-03-13T01:03:40;100021.94;;;8.52;100.00
74075;BME280;62428;51.412;5.432;2023-03-13T01:06:08;100012.53;;;8.55;100.00
74075;BME280;62428;51.412;5.432;2023-03-13T01:08:34;100006.88;;;8.56;100.00
74075;BME280;62428;51.412;5.432;2023-03-13T01:11:05;100000.41;;;8.57;100.00
74075;BME280;62428;51.412;5.432;2023-03-13T01:13:31;99992.59;;;8.61;100.00
74075;BME280;62428;51.412;5.432;2023-03-13T01:16:11;99989.13;;;8.60;100.00
74075;BME280;62428;51.412;5.432;2023-03-13T01:18:38;99982.38;;;8.63;100.00
74075;BME280;62428;51.412;5.432;2023-03-13T01:21:05;99978.59;;;8.64;100.00
74075;BME280;62428;51.412;5.432;2023-03-13T01:23:30;99968.09;;;8.68;100.00
74075;BME280;62428;51.412;5.432;2023-03-13T01:25:56;99972.84;;;8.71;100.00
74075;BME280;62428;51.412;5.432;2023-03-13T01:28:23;99969.84;;;8.72;100.00
74075;BME280;62428;51.412;5.432;2023-03-13T01:30:49;99956.16;;;8.74;100.00
74075;BME280;62428;51.412;5.432;2023-03-13T01:33:15;99941.06;;;8.78;100.00
74075;BME280;62428;51.412;5.432;2023-03-13T01:35:40;99935.72;;;8.78;100.00
74075;BME280;62428;51.412;5.432;2023-03-13T01:38:06;99934.34;;;8.80;100.00
74075;BME280;62428;51.412;5.432;2023-03-13T01:40:40;99932.16;;;8.82;100.00
74075;BME280;62428;51.412;5.432;2023-03-13T01:43:20;99928.06;;;8.85;100.00
74075;BME280;62428;51.412;5.432;2023-03-13T01:49:19;99929.56;;;8.91;100.00
74075;BME280;62428;51.412;5.432;2023-03-13T01:51:54;99931.63;;;8.94;100.00
74075;BME280;62428;51.412;5.432;2023-03-13T01:54:50;99916.25;;;9.00;100.00
74075;BME280;62428;51.412;5.432;2023-03-13T01:57:19;99923.34;;;9.04;100.00
74075;BME280;62428;51.412;5.432;2023-03-13T02:02:26;99896.75;;;9.08;100.00
74075;BME280;62428;51.412;5.432;2023-03-13T02:04:57;99898.53;;;9.13;100.00
74075;BME280;62428;51.412;5.432;2023-03-13T02:07:34;99897.13;;;9.15;100.00
74075;BME280;62428;51.412;5.432;2023-03-13T02:10:03;99894.31;;;9.20;100.00
74075;BME280;62428;51.412;5.432;2023-03-13T02:12:34;99880.00;;;9.25;100.00
74075;BME280;62428;51.412;5.432;2023-03-13T02:15:04;99865.50;;;9.26;100.00
74075;BME280;62428;51.412;5.432;2023-03-13T02:17:29;99865.69;;;9.30;100.00
74075;BME280;62428;51.412;5.432;2023-03-13T02:19:56;99847.41;;;9.32;100.00
74075;BME280;62428;51.412;5.432;2023-03-13T02:27:53;99812.59;;;9.40;100.00
74075;BME280;62428;51.412;5.432;2023-03-13T02:30:19;99805.34;;;9.41;100.00
74075;BME280;62428;51.412;5.432;2023-03-13T02:32:45;99811.19;;;9.43;100.00
74075;BME280;62428;51.412;5.432;2023-03-13T02:35:13;99821.91;;;9.43;100.00
74075;BME280;62428;51.412;5.432;2023-03-13T02:37:41;99830.44;;;9.45;100.00
74075;BME280;62428;51.412;5.432;2023-03-13T02:40:11;99810.75;;;9.50;100.00
74075;BME280;62428;51.412;5.432;2023-03-13T02:42:42;99808.84;;;9.50;100.00
74075;BME280;62428;51.412;5.432;2023-03-13T02:45:13;99813.13;;;9.51;100.00
74075;BME280;62428;51.412;5.432;2023-03-13T02:47:38;99812.19;;;9.56;100.00
74075;BME280;62428;51.412;5.432;2023-03-13T02:50:04;99799.56;;;9.56;100.00
74075;BME280;62428;51.412;5.432;2023-03-13T02:52:32;99804.66;;;9.67;100.00
74075;BME280;62428;51.412;5.432;2023-03-13T02:55:05;99784.16;;;9.71;100.00
74075;BME280;62428;51.412;5.432;2023-03-13T02:57:33;99793.81;;;9.72;100.00
74075;BME280;62428;51.412;5.432;2023-03-13T02:59:59;99789.69;;;9.74;100.00
74075;BME280;62428;51.412;5.432;2023-03-13T03:02:25;99797.44;;;9.76;100.00
74075;BME280;62428;51.412;5.432;2023-03-13T03:04:52;99801.72;;;9.77;100.00
74075;BME280;62428;51.412;5.432;2023-03-13T03:07:18;99810.22;;;9.79;100.00
74075;BME280;62428;51.412;5.432;2023-03-13T03:09:43;99812.31;;;9.82;100.00
74075;BME280;62428;51.412;5.432;2023-03-13T03:12:08;99804.72;;;9.84;100.00
74075;BME280;62428;51.412;5.432;2023-03-13T03:14:34;99809.78;;;9.86;100.00
74075;BME280;62428;51.412;5.432;2023-03-13T03:16:59;99813.25;;;9.86;100.00
74075;BME280;62428;51.412;5.432;2023-03-13T03:19:24;99808.06;;;9.90;100.00
74075;BME280;62428;51.412;5.432;2023-03-13T03:21:50;99803.47;;;9.90;100.00
74075;BME280;62428;51.412;5.432;2023-03-13T03:24:15;99797.50;;;9.93;100.00
74075;BME280;62428;51.412;5.432;2023-03-13T03:26:40;99805.25;;;9.95;100.00
74075;BME280;62428;51.412;5.432;2023-03-13T03:29:06;99810.25;;;9.96;100.00
74075;BME280;62428;51.412;5.432;2023-03-13T03:31:35;99797.66;;;9.97;100.00
74075;BME280;62428;51.412;5.432;2023-03-13T03:34:00;99787.41;;;9.99;100.00
74075;BME280;62428;51.412;5.432;2023-03-13T03:36:26;99781.41;;;10.02;100.00
74075;BME280;62428;51.412;5.432;2023-03-13T03:38:51;99786.78;;;10.02;100.00
74075;BME280;62428;51.412;5.432;2023-03-13T03:41:17;99791.97;;;10.07;100.00
74075;BME280;62428;51.412;5.432;2023-03-13T03:43:43;99786.91;;;10.06;100.00
74075;BME280;62428;51.412;5.432;2023-03-13T03:46:12;99781.91;;;10.04;100.00
74075;BME280;62428;51.412;5.432;2023-03-13T03:48:38;99790.88;;;10.08;100.00
74075;BME280;62428;51.412;5.432;2023-03-13T03:51:03;99789.78;;;10.09;100.00
74075;BME280;62428;51.412;5.432;2023-03-13T03:53:29;99776.84;;;10.11;100.00
74075;BME280;62428;51.412;5.432;2023-03-13T03:55:56;99783.16;;;10.15;100.00
74075;BME280;62428;51.412;5.432;2023-03-13T03:58:21;99779.53;;;10.20;100.00
74075;BME280;62428;51.412;5.432;2023-03-13T04:00:47;99773.53;;;10.23;100.00
74075;BME280;62428;51.412;5.432;2023-03-13T04:03:13;99778.28;;;10.26;100.00
74075;BME280;62428;51.412;5.432;2023-03-13T04:05:39;99783.00;;;10.29;100.00
74075;BME280;62428;51.412;5.432;2023-03-13T04:08:05;99770.13;;;10.31;100.00
74075;BME280;62428;51.412;5.432;2023-03-13T04:10:31;99774.84;;;10.34;100.00
74075;BME280;62428;51.412;5.432;2023-03-13T04:12:57;99768.84;;;10.37;100.00
74075;BME280;62428;51.412;5.432;2023-03-13T04:15:22;99771.69;;;10.41;100.00
74075;BME280;62428;51.412;5.432;2023-03-13T04:17:48;99765.69;;;10.44;100.00
74075;BME280;62428;51.412;5.432;2023-03-13T04:20:13;99761.88;;;10.45;100.00
74075;BME280;62428;51.412;5.432;2023-03-13T04:22:40;99756.66;;;10.49;100.00
74075;BME280;62428;51.412;5.432;2023-03-13T04:25:07;99744.84;;;10.50;100.00
74075;BME280;62428;51.412;5.432;2023-03-13T04:27:33;99746.88;;;10.53;100.00
74075;BME280;62428;51.412;5.432;2023-03-13T04:29:58;99744.66;;;10.55;100.00
74075;BME280;62428;51.412;5.432;2023-03-13T04:32:24;99733.28;;;10.58;100.00
74075;BME280;62428;51.412;5.432;2023-03-13T04:34:49;99728.84;;;10.62;100.00
74075;BME280;62428;51.412;5.432;2023-03-13T04:37:14;99724.75;;;10.65;100.00
74075;BME280;62428;51.412;5.432;2023-03-13T04:39:40;99714.78;;;10.65;100.00
74075;BME280;62428;51.412;5.432;2023-03-13T04:42:09;99712.09;;;10.65;100.00
74075;BME280;62428;51.412;5.432;2023-03-13T04:44:35;99708.63;;;10.65;100.00
74075;BME280;62428;51.412;5.432;2023-03-13T04:47:01;99714.00;;;10.65;100.00
74075;BME280;62428;51.412;5.432;2023-03-13T04:49:26;99706.25;;;10.63;100.00
74075;BME280;62428;51.412;5.432;2023-03-13T04:51:52;99712.09;;;10.65;100.00
74075;BME280;62428;51.412;5.432;2023-03-13T04:54:17;99709.88;;;10.67;100.00
74075;BME280;62428;51.412;5.432;2023-03-13T04:56:42;99709.56;;;10.69;100.00
74075;BME280;62428;51.412;5.432;2023-03-13T04:59:10;99708.94;;;10.72;100.00
74075;BME280;62428;51.412;5.432;2023-03-13T05:01:36;99717.47;;;10.74;100.00
74075;BME280;62428;51.412;5.432;2023-03-13T05:04:01;99706.72;;;10.74;100.00
74075;BME280;62428;51.412;5.432;2023-03-13T05:06:27;99707.97;;;10.76;100.00
74075;BME280;62428;51.412;5.432;2023-03-13T05:08:52;99700.06;;;10.80;100.00
74075;BME280;62428;51.412;5.432;2023-03-13T05:11:17;99702.88;;;10.84;100.00
74075;BME280;62428;51.412;5.432;2023-03-13T05:13:43;99706.50;;;10.88;100.00
74075;BME280;62428;51.412;5.432;2023-03-13T05:16:08;99706.03;;;10.94;100.00
74075;BME280;62428;51.412;5.432;2023-03-13T05:18:33;99696.34;;;11.02;100.00
74075;BME280;62428;51.412;5.432;2023-03-13T05:21:01;99694.28;;;11.08;100.00
74075;BME280;62428;51.412;5.432;2023-03-13T05:23:27;99671.66;;;11.09;100.00
74075;BME280;62428;51.412;5.432;2023-03-13T05:25:52;99693.47;;;11.16;100.00
74075;BME280;62428;51.412;5.432;2023-03-13T05:28:17;99682.84;;;11.20;100.00
74075;BME280;62428;51.412;5.432;2023-03-13T05:30:43;99686.78;;;11.22;100.00
74075;BME280;62428;51.412;5.432;2023-03-13T05:33:08;99675.22;;;11.30;100.00
74075;BME280;62428;51.412;5.432;2023-03-13T05:35:33;99693.03;;;11.35;100.00
74075;BME280;62428;51.412;5.432;2023-03-13T05:37:59;99674.03;;;11.40;100.00
74075;BME280;62428;51.412;5.432;2023-03-13T05:40:24;99681.75;;;11.50;99.89
74075;BME280;62428;51.412;5.432;2023-03-13T05:42:50;99673.16;;;11.57;99.28
74075;BME280;62428;51.412;5.432;2023-03-13T05:45:15;99688.31;;;11.62;98.83
74075;BME280;62428;51.412;5.432;2023-03-13T05:47:40;99670.41;;;11.66;98.43
74075;BME280;62428;51.412;5.432;2023-03-13T05:50:06;99672.91;;;11.71;97.96
74075;BME280;62428;51.412;5.432;2023-03-13T05:52:32;99669.75;;;11.69;98.13
74075;BME280;62428;51.412;5.432;2023-03-13T05:54:58;99678.63;;;11.69;97.30
74075;BME280;62428;51.412;5.432;2023-03-13T05:57:23;99672.00;;;11.67;97.41
74075;BME280;62428;51.412;5.432;2023-03-13T05:59:49;99677.69;;;11.65;97.27
74075;BME280;62428;51.412;5.432;2023-03-13T06:02:14;99689.25;;;11.66;96.65
74075;BME280;62428;51.412;5.432;2023-03-13T06:04:40;99695.88;;;11.68;96.46
74075;BME280;62428;51.412;5.432;2023-03-13T06:07:05;99671.31;;;11.70;96.33
74075;BME280;62428;51.412;5.432;2023-03-13T06:09:31;99684.44;;;11.71;96.18
74075;BME280;62428;51.412;5.432;2023-03-13T06:11:56;99683.34;;;11.72;95.60
74075;BME280;62428;51.412;5.432;2023-03-13T06:14:22;99688.53;;;11.78;95.00
74075;BME280;62428;51.412;5.432;2023-03-13T06:16:47;99683.28;;;11.81;94.95
74075;BME280;62428;51.412;5.432;2023-03-13T06:19:12;99680.38;;;11.86;94.45
74075;BME280;62428;51.412;5.432;2023-03-13T06:21:38;99685.00;;;11.86;94.60
74075;BME280;62428;51.412;5.432;2023-03-13T06:24:03;99697.22;;;11.83;94.67
74075;BME280;62428;51.412;5.432;2023-03-13T06:26:32;99673.91;;;11.87;93.56
74075;BME280;62428;51.412;5.432;2023-03-13T06:28:57;99666.59;;;11.88;93.61
74075;BME280;62428;51.412;5.432;2023-03-13T06:31:22;99666.28;;;11.89;93.44
74075;BME280;62428;51.412;5.432;2023-03-13T06:33:52;99665.50;;;11.89;93.70
74075;BME280;62428;51.412;5.432;2023-03-13T06:36:17;99660.44;;;11.87;93.02
74075;BME280;62428;51.412;5.432;2023-03-13T06:38:42;99659.81;;;11.90;93.05
74075;BME280;62428;51.412;5.432;2023-03-13T06:41:08;99660.28;;;11.92;92.71
74075;BME280;62428;51.412;5.432;2023-03-13T06:43:33;99659.16;;;11.93;92.45
74075;BME280;62428;51.412;5.432;2023-03-13T06:46:02;99677.22;;;11.93;92.47
74075;BME280;62428;51.412;5.432;2023-03-13T06:48:28;99671.03;;;11.92;92.48
74075;BME280;62428;51.412;5.432;2023-03-13T06:50:53;99674.53;;;11.93;92.40
74075;BME280;62428;51.412;5.432;2023-03-13T06:53:20;99676.88;;;11.95;92.33
74075;BME280;62428;51.412;5.432;2023-03-13T06:55:46;99678.94;;;11.98;91.56
74075;BME280;62428;51.412;5.432;2023-03-13T06:58:11;99673.69;;;12.01;91.00
74075;BME280;62428;51.412;5.432;2023-03-13T07:00:37;99651.00;;;12.02;91.16
74075;BME280;62428;51.412;5.432;2023-03-13T07:03:05;99664.94;;;12.04;91.06
74075;BME280;62428;51.412;5.432;2023-03-13T07:05:30;99659.22;;;12.06;90.89
74075;BME280;62428;51.412;5.432;2023-03-13T07:07:56;99665.50;;;12.10;90.56
74075;BME280;62428;51.412;5.432;2023-03-13T07:10:21;99664.53;;;12.15;90.27
74075;BME280;62428;51.412;5.432;2023-03-13T07:12:47;99658.81;;;12.16;90.03
74075;BME280;62428;51.412;5.432;2023-03-13T07:15:12;99654.22;;;12.17;90.14
74075;BME280;62428;51.412;5.432;2023-03-13T07:17:38;99662.41;;;12.20;89.85
74075;BME280;62428;51.412;5.432;2023-03-13T07:20:04;99660.63;;;12.24;89.89
74075;BME280;62428;51.412;5.432;2023-03-13T07:22:30;99670.88;;;12.31;89.17
74075;BME280;62428;51.412;5.432;2023-03-13T07:24:56;99651.03;;;12.36;89.50
74075;BME280;62428;51.412;5.432;2023-03-13T07:27:21;99657.66;;;12.38;89.15
74075;BME280;62428;51.412;5.432;2023-03-13T07:29:47;99656.06;;;12.37;89.11
74075;BME280;62428;51.412;5.432;2023-03-13T07:32:13;99651.50;;;12.38;89.11
74075;BME280;62428;51.412;5.432;2023-03-13T07:34:38;99657.66;;;12.38;89.30
74075;BME280;62428;51.412;5.432;2023-03-13T07:37:04;99660.34;;;12.38;88.85
74075;BME280;62428;51.412;5.432;2023-03-13T07:39:29;99664.72;;;12.43;89.05
74075;BME280;62428;51.412;5.432;2023-03-13T07:41:55;99660.16;;;12.43;89.27
74075;BME280;62428;51.412;5.432;2023-03-13T07:44:20;99666.66;;;12.42;89.24
74075;BME280;62428;51.412;5.432;2023-03-13T07:46:45;99665.53;;;12.43;89.23
74075;BME280;62428;51.412;5.432;2023-03-13T07:49:12;99664.72;;;12.43;89.20
74075;BME280;62428;51.412;5.432;2023-03-13T07:51:38;99672.50;;;12.44;89.24
74075;BME280;62428;51.412;5.432;2023-03-13T07:54:04;99643.66;;;12.45;89.18
74075;BME280;62428;51.412;5.432;2023-03-13T07:56:29;99651.75;;;12.45;89.08
74075;BME280;62428;51.412;5.432;2023-03-13T07:58:54;99664.06;;;12.46;88.70
74075;BME280;62428;51.412;5.432;2023-03-13T08:01:22;99650.63;;;12.46;89.16
74075;BME280;62428;51.412;5.432;2023-03-13T08:03:48;99647.91;;;12.46;88.86
74075;BME280;62428;51.412;5.432;2023-03-13T08:06:18;99647.25;;;12.49;88.36
74075;BME280;62428;51.412;5.432;2023-03-13T08:08:44;99644.56;;;12.49;89.01
74075;BME280;62428;51.412;5.432;2023-03-13T08:11:14;99649.38;;;12.56;88.27
74075;BME280;62428;51.412;5.432;2023-03-13T08:13:40;99637.50;;;12.57;88.19
74075;BME280;62428;51.412;5.432;2023-03-13T08:16:13;99640.31;;;12.60;88.63
74075;BME280;62428;51.412;5.432;2023-03-13T08:18:47;99633.94;;;12.65;88.32
74075;BME280;62428;51.412;5.432;2023-03-13T08:21:14;99620.56;;;12.68;87.89
74075;BME280;62428;51.412;5.432;2023-03-13T08:23:40;99618.91;;;12.76;87.60
74075;BME280;62428;51.412;5.432;2023-03-13T08:26:12;99615.31;;;12.84;87.23
74075;BME280;62428;51.412;5.432;2023-03-13T08:28:38;99628.25;;;12.91;86.47
74075;BME280;62428;51.412;5.432;2023-03-13T08:31:14;99603.88;;;13.00;86.21
74075;BME280;62428;51.412;5.432;2023-03-13T08:33:41;99604.88;;;13.07;85.57
74075;BME280;62428;51.412;5.432;2023-03-13T08:36:13;99623.28;;;13.18;84.96
74075;BME280;62428;51.412;5.432;2023-03-13T08:38:40;99644.19;;;13.21;85.57
74075;BME280;62428;51.412;5.432;2023-03-13T08:41:10;99639.69;;;13.25;85.95
74075;BME280;62428;51.412;5.432;2023-03-13T08:43:35;99642.75;;;13.23;87.41
74075;BME280;62428;51.412;5.432;2023-03-13T08:46:01;99626.56;;;13.23;87.71
74075;BME280;62428;51.412;5.432;2023-03-13T08:48:26;99631.84;;;13.20;88.34
74075;BME280;62428;51.412;5.432;2023-03-13T08:53:24;99615.31;;;13.34;86.85
74075;BME280;62428;51.412;5.432;2023-03-13T08:55:53;99626.44;;;13.32;86.97
74075;BME280;62428;51.412;5.432;2023-03-13T08:58:19;99618.00;;;13.46;86.74
74075;BME280;62428;51.412;5.432;2023-03-13T09:00:44;99612.81;;;13.53;86.21
74075;BME280;62428;51.412;5.432;2023-03-13T09:03:09;99616.75;;;13.56;85.83
74075;BME280;62428;51.412;5.432;2023-03-13T09:05:36;99619.09;;;13.57;84.71
74075;BME280;62428;51.412;5.432;2023-03-13T09:08:02;99609.44;;;13.56;85.94
74075;BME280;62428;51.412;5.432;2023-03-13T09:10:27;99608.75;;;13.59;85.29
74075;BME280;62428;51.412;5.432;2023-03-13T09:12:53;99593.00;;;13.61;84.63
74075;BME280;62428;51.412;5.432;2023-03-13T09:15:18;99597.19;;;13.59;84.43
74075;BME280;62428;51.412;5.432;2023-03-13T09:17:44;99597.06;;;13.55;85.17
74075;BME280;62428;51.412;5.432;2023-03-13T09:20:10;99602.13;;;13.57;84.77
74075;BME280;62428;51.412;5.432;2023-03-13T09:22:35;99592.13;;;13.57;84.59
74075;BME280;62428;51.412;5.432;2023-03-13T09:25:00;99599.31;;;13.65;83.63
74075;BME280;62428;51.412;5.432;2023-03-13T09:27:26;99595.22;;;13.72;83.21
74075;BME280;62428;51.412;5.432;2023-03-13T09:29:52;99592.16;;;13.86;83.14
74075;BME280;62428;51.412;5.432;2023-03-13T09:32:18;99576.06;;;13.89;83.10
74075;BME280;62428;51.412;5.432;2023-03-13T09:34:45;99577.59;;;13.90;81.67
74075;BME280;62428;51.412;5.432;2023-03-13T09:37:10;99567.59;;;13.91;81.97
74075;BME280;62428;51.412;5.432;2023-03-13T09:39:36;99570.25;;;14.03;81.96
74075;BME280;62428;51.412;5.432;2023-03-13T09:42:14;99564.19;;;14.22;81.45
74075;BME280;62428;51.412;5.432;2023-03-13T09:44:48;99545.72;;;14.40;79.95
74075;BME280;62428;51.412;5.432;2023-03-13T09:47:24;99557.22;;;14.53;80.56
74075;BME280;62428;51.412;5.432;2023-03-13T09:50:00;99540.94;;;14.65;78.41
74075;BME280;62428;51.412;5.432;2023-03-13T09:52:33;99544.88;;;14.68;77.03
74075;BME280;62428;51.412;5.432;2023-03-13T09:55:10;99537.81;;;14.63;77.08
74075;BME280;62428;51.412;5.432;2023-03-13T10:00:33;99538.97;;;14.62;76.74
74075;BME280;62428;51.412;5.432;2023-03-13T10:05:43;99538.44;;;15.08;75.24
74075;BME280;62428;51.412;5.432;2023-03-13T10:08:29;99548.16;;;15.28;75.12
74075;BME280;62428;51.412;5.432;2023-03-13T10:11:14;99545.59;;;15.35;74.67
74075;BME280;62428;51.412;5.432;2023-03-13T10:14:13;99536.56;;;15.47;74.34
74075;BME280;62428;51.412;5.432;2023-03-13T10:16:46;99533.06;;;15.47;73.40
74075;BME280;62428;51.412;5.432;2023-03-13T10:19:15;99524.88;;;15.43;71.87
74075;BME280;62428;51.412;5.432;2023-03-13T10:21:44;99531.66;;;15.33;72.91
74075;BME280;62428;51.412;5.432;2023-03-13T10:24:49;99559.41;;;15.30;74.25
74075;BME280;62428;51.412;5.432;2023-03-13T10:27:17;99525.00;;;15.31;72.28
74075;BME280;62428;51.412;5.432;2023-03-13T10:29:43;99521.72;;;15.22;72.96
74075;BME280;62428;51.412;5.432;2023-03-13T10:32:12;99527.13;;;15.22;74.19
74075;BME280;62428;51.412;5.432;2023-03-13T10:34:57;99515.63;;;15.44;73.29
74075;BME280;62428;51.412;5.432;2023-03-13T10:37:31;99504.72;;;15.60;71.18
74075;BME280;62428;51.412;5.432;2023-03-13T10:40:23;99549.00;;;15.71;71.77
74075;BME280;62428;51.412;5.432;2023-03-13T10:42:51;99493.53;;;15.62;70.61
74075;BME280;62428;51.412;5.432;2023-03-13T10:45:18;99507.41;;;15.60;70.50
74075;BME280;62428;51.412;5.432;2023-03-13T10:47:45;99492.97;;;15.52;70.35
74075;BME280;62428;51.412;5.432;2023-03-13T10:50:23;99502.44;;;15.43;72.44
74075;BME280;62428;51.412;5.432;2023-03-13T10:52:49;99491.91;;;15.37;71.69
74075;BME280;62428;51.412;5.432;2023-03-13T10:55:17;99487.97;;;15.35;72.58
74075;BME280;62428;51.412;5.432;2023-03-13T10:57:58;99491.34;;;15.28;72.26
74075;BME280;62428;51.412;5.432;2023-03-13T11:00:35;99494.75;;;15.25;73.46
74075;BME280;62428;51.412;5.432;2023-03-13T11:03:04;99490.91;;;15.26;73.86
74075;BME280;62428;51.412;5.432;2023-03-13T11:08:24;99486.63;;;15.45;71.77
74075;BME280;62428;51.412;5.432;2023-03-13T11:10:58;99486.34;;;15.50;71.20
74075;BME280;62428;51.412;5.432;2023-03-13T11:13:27;99480.44;;;15.44;70.93
74075;BME280;62428;51.412;5.432;2023-03-13T11:15:55;99481.16;;;15.41;70.34
74075;BME280;62428;51.412;5.432;2023-03-13T11:21:18;99478.38;;;15.37;70.03
74075;BME280;62428;51.412;5.432;2023-03-13T11:23:49;99464.84;;;15.37;67.58
74075;BME280;62428;51.412;5.432;2023-03-13T11:26:36;99474.03;;;15.33;68.59
74075;BME280;62428;51.412;5.432;2023-03-13T11:31:31;99458.28;;;15.38;67.52
74075;BME280;62428;51.412;5.432;2023-03-13T11:36:59;99458.19;;;15.54;67.13
74075;BME280;62428;51.412;5.432;2023-03-13T11:50:09;99438.47;;;15.54;67.24
74075;BME280;62428;51.412;5.432;2023-03-13T11:58:37;99418.25;;;15.90;66.98
74075;BME280;62428;51.412;5.432;2023-03-13T12:01:19;99410.44;;;16.08;66.14
74075;BME280;62428;51.412;5.432;2023-03-13T12:04:14;99418.09;;;16.29;66.37
74075;BME280;62428;51.412;5.432;2023-03-13T12:06:46;99418.63;;;16.39;65.19
74075;BME280;62428;51.412;5.432;2023-03-13T12:09:32;99389.50;;;16.32;65.92
74075;BME280;62428;51.412;5.432;2023-03-13T12:15:19;99400.25;;;16.02;66.71
74075;BME280;62428;51.412;5.432;2023-03-13T12:20:39;99387.28;;;16.14;65.86
74075;BME280;62428;51.412;5.432;2023-03-13T12:23:18;99374.88;;;16.13;66.17
74075;BME280;62428;51.412;5.432;2023-03-13T12:31:35;99367.63;;;16.18;64.02
74075;BME280;62428;51.412;5.432;2023-03-13T12:39:36;99356.56;;;16.03;63.73
74075;BME280;62428;51.412;5.432;2023-03-13T12:42:22;99367.03;;;16.05;62.11
74075;BME280;62428;51.412;5.432;2023-03-13T12:44:54;99360.69;;;15.97;61.08
74075;BME280;62428;51.412;5.432;2023-03-13T12:47:39;99349.50;;;15.99;61.76
74075;BME280;62428;51.412;5.432;2023-03-13T12:50:36;99350.25;;;15.95;62.44
74075;BME280;62428;51.412;5.432;2023-03-13T12:58:53;99318.94;;;15.98;62.77
74075;BME280;62428;51.412;5.432;2023-03-13T13:03:55;99317.38;;;16.24;62.38
74075;BME280;62428;51.412;5.432;2023-03-13T13:06:22;99319.50;;;16.38;62.23
74075;BME280;62428;51.412;5.432;2023-03-13T13:16:45;99316.84;;;17.05;59.53
74075;BME280;62428;51.412;5.432;2023-03-13T13:24:55;99308.94;;;16.93;57.43
74075;BME280;62428;51.412;5.432;2023-03-13T13:30:42;99308.69;;;17.05;56.71
74075;BME280;62428;51.412;5.432;2023-03-13T13:32:55;99310.00;;;17.22;56.03
74075;BME280;62428;51.412;5.432;2023-03-13T13:35:38;99310.88;;;17.34;56.94
74075;BME280;62428;51.412;5.432;2023-03-13T13:43:23;99286.38;;;17.71;51.76
74075;BME280;62428;51.412;5.432;2023-03-13T13:48:46;99259.22;;;17.67;53.38
74075;BME280;62428;51.412;5.432;2023-03-13T13:51:37;99267.31;;;17.64;53.45
74075;BME280;62428;51.412;5.432;2023-03-13T13:54:03;99269.59;;;17.55;53.77
74075;BME280;62428;51.412;5.432;2023-03-13T13:56:37;99261.50;;;17.62;55.20
74075;BME280;62428;51.412;5.432;2023-03-13T14:04:45;99258.06;;;18.38;54.97
74075;BME280;62428;51.412;5.432;2023-03-13T14:07:17;99258.50;;;18.51;53.30
74075;BME280;62428;51.412;5.432;2023-03-13T14:10:00;99259.63;;;18.43;54.40
74075;BME280;62428;51.412;5.432;2023-03-13T14:12:35;99261.56;;;18.42;52.75
74075;BME280;62428;51.412;5.432;2023-03-13T14:17:46;99269.00;;;18.53;53.07
74075;BME280;62428;51.412;5.432;2023-03-13T14:20:35;99255.13;;;18.83;52.28
74075;BME280;62428;51.412;5.432;2023-03-13T14:23:04;99240.78;;;19.47;50.32
74075;BME280;62428;51.412;5.432;2023-03-13T14:28:15;99242.72;;;19.61;49.20
74075;BME280;62428;51.412;5.432;2023-03-13T14:30:44;99255.91;;;19.98;48.32
74075;BME280;62428;51.412;5.432;2023-03-13T14:33:14;99251.78;;;20.61;45.77
74075;BME280;62428;51.412;5.432;2023-03-13T14:35:40;99254.84;;;20.73;44.58
74075;BME280;62428;51.412;5.432;2023-03-13T14:38:06;99239.13;;;20.96;44.71
74075;BME280;62428;51.412;5.432;2023-03-13T14:40:36;99237.53;;;21.54;43.55
74075;BME280;62428;51.412;5.432;2023-03-13T14:43:02;99233.00;;;21.78;42.71
74075;BME280;62428;51.412;5.432;2023-03-13T14:45:35;99252.16;;;22.13;44.04
74075;BME280;62428;51.412;5.432;2023-03-13T14:48:19;99252.13;;;22.16;44.04
74075;BME280;62428;51.412;5.432;2023-03-13T14:50:47;99231.88;;;21.72;41.74
74075;BME280;62428;51.412;5.432;2023-03-13T14:53:17;99229.16;;;20.60;43.57
74075;BME280;62428;51.412;5.432;2023-03-13T14:55:44;99218.88;;;20.15;44.33